Time;durP1;ratioP1;P1;durP2;ratioP2;P2;SDS_P1;SDS_P2;PMS_P1;PMS_P2;Temp;Humidity;BMP_temperature;BMP_pressure;BME280_temperature;BME280_humidity;BME280_pressure;Samples;Min_cycle;Max_cycle;Signal;HPM_P1;HPM_P2
2023/05/14 00:01:04;;;;;;;10.30;9.18;;;;;;;;;;5071022;28;20413;-58
2023/05/14 00:03:31;;;;;;;9.77;8.07;;;;;;;;;;5072948;28;20060;-58
2023/05/14 00:05:57;;;;;;;8.20;7.40;;;;;;;;;;5073070;28;20059;-58
2023/05/14 00:08:27;;;;;;;9.35;7.47;;;;;;;;;;5069120;28;20055;-58
2023/05/14 00:10:54;;;;;;;8.98;7.63;;;;;;;;;;5072497;28;20064;-58
2023/05/14 00:13:25;;;;;;;9.95;8.98;;;;;;;;;;5070538;28;20424;-58
2023/05/14 00:15:52;;;;;;;11.10;8.65;;;;;;;;;;5052534;28;20053;-58
2023/05/14 00:18:19;;;;;;;8.88;7.97;;;;;;;;;;5052406;28;20422;-58
2023/05/14 00:20:46;;;;;;;10.30;9.30;;;;;;;;;;5052678;28;20053;-58
2023/05/14 00:23:13;;;;;;;11.05;9.95;;;;;;;;;;5052375;28;20057;-58
2023/05/14 00:25:39;;;;;;;12.60;8.90;;;;;;;;;;5052500;28;20490;-58
2023/05/14 00:28:09;;;;;;;9.70;8.73;;;;;;;;;;5051768;28;20060;-58
2023/05/14 00:30:38;;;;;;;11.57;10.32;;;;;;;;;;5070913;28;20056;-58
2023/05/14 00:33:05;;;;;;;9.52;7.38;;;;;;;;;;5062158;28;20055;-58
2023/05/14 00:35:34;;;;;;;8.45;7.45;;;;;;;;;;5052602;28;20053;-58
2023/05/14 00:38:01;;;;;;;10.02;8.25;;;;;;;;;;5053288;28;20053;-58
2023/05/14 00:40:28;;;;;;;11.50;8.68;;;;;;;;;;5053117;28;20110;-58
2023/05/14 00:42:55;;;;;;;11.55;8.82;;;;;;;;;;5052952;28;20414;-58
2023/05/14 00:45:22;;;;;;;12.02;10.48;;;;;;;;;;5066797;28;20064;-58
2023/05/14 00:47:53;;;;;;;11.63;10.63;;;;;;;;;;5072794;28;20052;-58
2023/05/14 00:50:20;;;;;;;10.55;9.45;;;;;;;;;;5061721;28;20060;-58
2023/05/14 00:52:50;;;;;;;11.23;8.52;;;;;;;;;;5072501;28;20056;-58
2023/05/14 00:55:17;;;;;;;11.18;9.10;;;;;;;;;;5062396;28;20059;-58
2023/05/14 00:57:44;;;;;;;9.10;8.30;;;;;;;;;;5052797;28;20049;-58
2023/05/14 01:00:11;;;;;;;12.25;10.43;;;;;;;;;;5053525;28;20505;-58
2023/05/14 01:02:38;;;;;;;10.30;9.32;;;;;;;;;;5060384;28;20413;-58
2023/05/14 01:05:07;;;;;;;11.90;10.20;;;;;;;;;;5072640;28;20052;-58
2023/05/14 01:07:39;;;;;;;10.10;9.02;;;;;;;;;;5066865;28;20053;-58
2023/05/14 01:10:09;;;;;;;10.30;9.23;;;;;;;;;;5070755;28;20397;-58
2023/05/14 01:12:38;;;;;;;9.90;8.93;;;;;;;;;;5071730;28;20063;-58
2023/05/14 01:15:08;;;;;;;10.20;9.20;;;;;;;;;;5065129;28;20068;-58
2023/05/14 01:17:43;;;;;;;8.98;8.10;;;;;;;;;;5056486;28;20504;-58
2023/05/14 01:20:11;;;;;;;8.85;7.93;;;;;;;;;;5056242;28;20351;-58
2023/05/14 01:22:40;;;;;;;10.20;9.20;;;;;;;;;;5056234;28;20482;-58
2023/05/14 01:25:07;;;;;;;9.93;8.93;;;;;;;;;;5055864;28;20072;-58
2023/05/14 01:27:36;;;;;;;9.15;8.10;;;;;;;;;;5056260;28;20049;-58
2023/05/14 01:30:06;;;;;;;10.07;8.98;;;;;;;;;;5065279;28;20045;-58
2023/05/14 01:32:33;;;;;;;11.25;9.63;;;;;;;;;;5075890;28;20048;-58
2023/05/14 01:35:01;;;;;;;9.88;8.88;;;;;;;;;;5075691;28;20052;-58
2023/05/14 01:37:29;;;;;;;9.85;8.77;;;;;;;;;;5075664;28;20048;-58
2023/05/14 01:39:59;;;;;;;9.40;8.50;;;;;;;;;;5075501;28;20060;-58
2023/05/14 01:42:26;;;;;;;9.68;8.77;;;;;;;;;;5075660;28;20053;-58
2023/05/14 01:44:53;;;;;;;9.32;8.38;;;;;;;;;;5071566;28;20048;-58
2023/05/14 01:47:20;;;;;;;7.95;7.13;;;;;;;;;;5075520;28;20524;-58
2023/05/14 01:49:46;;;;;;;10.18;9.00;;;;;;;;;;5075397;28;20044;-58
2023/05/14 01:52:13;;;;;;;10.80;9.70;;;;;;;;;;5075457;28;20057;-58
2023/05/14 01:54:43;;;;;;;9.65;8.40;;;;;;;;;;5075156;28;20056;-58
2023/05/14 01:57:14;;;;;;;10.27;9.27;;;;;;;;;;5075342;28;20053;-58
2023/05/14 01:59:40;;;;;;;12.15;10.25;;;;;;;;;;5068351;28;20052;-58
2023/05/14 02:02:07;;;;;;;10.60;9.52;;;;;;;;;;5070465;28;20386;-58
2023/05/14 02:04:34;;;;;;;10.82;9.45;;;;;;;;;;5075520;28;20057;-57
2023/05/14 02:07:01;;;;;;;9.73;8.73;;;;;;;;;;5075303;28;20061;-58
2023/05/14 02:09:29;;;;;;;10.85;9.85;;;;;;;;;;5074737;28;20048;-58
2023/05/14 02:11:56;;;;;;;11.57;10.32;;;;;;;;;;5069214;28;20067;-58
2023/05/14 02:14:24;;;;;;;9.18;8.27;;;;;;;;;;5071973;28;20053;-58
2023/05/14 02:16:51;;;;;;;9.85;8.65;;;;;;;;;;5075179;28;20053;-58
2023/05/14 02:19:21;;;;;;;10.10;8.75;;;;;;;;;;5075018;28;20044;-58
2023/05/14 02:21:48;;;;;;;9.75;8.75;;;;;;;;;;5074687;28;20048;-58
2023/05/14 02:24:15;;;;;;;11.02;9.55;;;;;;;;;;5074666;28;20053;-58
2023/05/14 02:26:42;;;;;;;8.90;7.95;;;;;;;;;;5074593;28;20056;-58
2023/05/14 02:29:09;;;;;;;9.10;8.18;;;;;;;;;;5070837;28;20055;-58
2023/05/14 02:31:38;;;;;;;9.32;8.02;;;;;;;;;;5064802;28;20056;-58
2023/05/14 02:34:05;;;;;;;8.57;7.83;;;;;;;;;;5075093;28;20409;-58
2023/05/14 02:36:32;;;;;;;10.90;9.80;;;;;;;;;;5070679;28;21026;-58
2023/05/14 02:38:59;;;;;;;14.85;9.38;;;;;;;;;;5053946;28;20482;-58
2023/05/14 02:41:26;;;;;;;10.70;9.60;;;;;;;;;;5054334;28;20413;-58
2023/05/14 02:43:53;;;;;;;10.27;9.27;;;;;;;;;;5054042;28;20049;-58
2023/05/14 02:46:20;;;;;;;10.30;8.88;;;;;;;;;;5072799;28;20063;-62
2023/05/14 02:48:48;;;;;;;9.75;8.68;;;;;;;;;;5074050;28;20048;-63
2023/05/14 02:51:15;;;;;;;9.00;8.10;;;;;;;;;;5074084;28;20395;-63
2023/05/14 02:53:42;;;;;;;9.23;8.13;;;;;;;;;;5073773;28;20413;-63
2023/05/14 02:56:09;;;;;;;8.73;7.70;;;;;;;;;;5070067;28;20048;-63
2023/05/14 02:58:36;;;;;;;10.55;9.45;;;;;;;;;;5074480;28;20052;-62
2023/05/14 03:01:02;;;;;;;10.85;8.52;;;;;;;;;;5066969;28;20045;-63
2023/05/14 03:03:29;;;;;;;10.07;9.07;;;;;;;;;;5072057;28;20056;-62
2023/05/14 03:05:58;;;;;;;9.25;7.72;;;;;;;;;;5074107;28;20063;-62
2023/05/14 03:08:24;;;;;;;8.93;8.13;;;;;;;;;;5073688;28;20048;-62
2023/05/14 03:10:51;;;;;;;8.10;7.30;;;;;;;;;;5073770;28;20431;-62
2023/05/14 03:13:19;;;;;;;9.60;8.70;;;;;;;;;;5073364;28;20056;-62
2023/05/14 03:15:46;;;;;;;13.85;12.45;;;;;;;;;;5069389;28;20489;-62
2023/05/14 03:18:13;;;;;;;9.40;8.43;;;;;;;;;;5073597;28;20052;-63
2023/05/14 03:20:41;;;;;;;8.90;8.10;;;;;;;;;;5073624;28;20053;-63
2023/05/14 03:23:10;;;;;;;9.57;8.68;;;;;;;;;;5073462;28;20405;-63
2023/05/14 03:25:36;;;;;;;8.93;8.00;;;;;;;;;;5073670;28;20064;-63
2023/05/14 03:28:04;;;;;;;9.48;8.48;;;;;;;;;;5073869;28;20060;-62
2023/05/14 03:30:31;;;;;;;9.05;8.15;;;;;;;;;;5069179;28;20048;-62
2023/05/14 03:32:57;;;;;;;8.82;7.93;;;;;;;;;;5073489;28;20056;-63
2023/05/14 03:35:24;;;;;;;9.43;8.10;;;;;;;;;;5072821;28;20049;-63
2023/05/14 03:37:51;;;;;;;9.45;8.55;;;;;;;;;;5073859;28;20060;-63
2023/05/14 03:40:20;;;;;;;9.10;8.20;;;;;;;;;;5073426;28;20055;-63
2023/05/14 03:42:46;;;;;;;11.30;10.27;;;;;;;;;;5073109;28;20053;-62
2023/05/14 03:45:13;;;;;;;12.80;9.82;;;;;;;;;;5068040;28;20052;-63
2023/05/14 03:47:40;;;;;;;10.57;9.55;;;;;;;;;;5073423;28;20374;-63
2023/05/14 03:50:10;;;;;;;10.25;8.70;;;;;;;;;;5072804;28;20413;-63
2023/05/14 03:52:37;;;;;;;12.65;8.90;;;;;;;;;;5073294;28;20055;-63
2023/05/14 03:55:04;;;;;;;12.50;10.75;;;;;;;;;;5072881;28;20067;-63
2023/05/14 03:57:32;;;;;;;11.35;9.80;;;;;;;;;;5073067;28;20095;-63
2023/05/14 03:59:59;;;;;;;10.63;9.63;;;;;;;;;;5068862;28;20115;-63
2023/05/14 04:02:25;;;;;;;16.45;11.77;;;;;;;;;;5072968;28;20532;-63
2023/05/14 04:04:52;;;;;;;12.68;9.70;;;;;;;;;;5073105;28;20060;-63
2023/05/14 04:07:19;;;;;;;12.55;11.35;;;;;;;;;;5066640;28;20397;-63
2023/05/14 04:09:46;;;;;;;10.18;9.18;;;;;;;;;;5072549;28;20055;-63
2023/05/14 04:12:13;;;;;;;12.18;9.35;;;;;;;;;;5072314;28;20501;-63
2023/05/14 04:14:41;;;;;;;11.90;10.68;;;;;;;;;;5068883;28;20056;-62
2023/05/14 04:17:08;;;;;;;9.88;8.75;;;;;;;;;;5072972;28;20052;-63
2023/05/14 04:19:35;;;;;;;10.82;9.73;;;;;;;;;;5072565;28;20060;-63
2023/05/14 04:22:01;;;;;;;10.43;9.38;;;;;;;;;;5072512;28;20508;-63
2023/05/14 04:24:28;;;;;;;11.18;10.00;;;;;;;;;;5072513;28;20056;-63
2023/05/14 04:26:55;;;;;;;10.07;9.07;;;;;;;;;;5072634;28;20048;-62
2023/05/14 04:29:22;;;;;;;10.02;8.73;;;;;;;;;;5069653;28;20417;-62
2023/05/14 04:31:50;;;;;;;10.82;9.73;;;;;;;;;;5072758;28;20504;-63
2023/05/14 04:34:17;;;;;;;10.45;9.45;;;;;;;;;;5052298;28;20060;-62
2023/05/14 04:36:44;;;;;;;10.05;8.05;;;;;;;;;;5052830;28;20060;-63
2023/05/14 04:39:11;;;;;;;10.90;9.75;;;;;;;;;;5052563;28;20045;-63
2023/05/14 04:41:38;;;;;;;10.68;9.57;;;;;;;;;;5052523;28;20086;-63
2023/05/14 04:44:05;;;;;;;9.73;8.77;;;;;;;;;;5058569;28;20052;-63
2023/05/14 04:46:32;;;;;;;10.38;9.38;;;;;;;;;;5075271;28;20059;-63
2023/05/14 04:49:00;;;;;;;10.77;9.68;;;;;;;;;;5076402;28;20063;-63
2023/05/14 04:51:27;;;;;;;11.40;9.80;;;;;;;;;;5076348;28;20059;-63
2023/05/14 04:53:54;;;;;;;11.18;9.90;;;;;;;;;;5076560;28;20048;-62
2023/05/14 04:56:21;;;;;;;12.20;9.40;;;;;;;;;;5080912;28;20060;-59
2023/05/14 04:58:50;;;;;;;10.88;9.88;;;;;;;;;;5072488;28;20044;-62
2023/05/14 05:01:17;;;;;;;13.20;11.15;;;;;;;;;;5067006;28;20063;-61
2023/05/14 05:03:43;;;;;;;9.25;8.35;;;;;;;;;;5073405;28;20048;-62
2023/05/14 05:06:17;;;;;;;10.27;9.18;;;;;;;;;;5073214;28;20044;-57
2023/05/14 05:08:43;;;;;;;11.20;10.02;;;;;;;;;;5076051;28;20180;-57
2023/05/14 05:11:10;;;;;;;10.70;9.60;;;;;;;;;;5075446;28;20488;-57
2023/05/14 05:13:37;;;;;;;10.82;9.65;;;;;;;;;;5072006;28;20045;-62
2023/05/14 05:16:04;;;;;;;9.40;8.38;;;;;;;;;;5075297;28;20060;-62
2023/05/14 05:18:31;;;;;;;9.55;8.25;;;;;;;;;;5075482;28;20063;-57
2023/05/14 05:20:58;;;;;;;10.48;9.43;;;;;;;;;;5075750;28;20074;-57
2023/05/14 05:23:26;;;;;;;9.93;9.02;;;;;;;;;;5075769;28;20049;-57
2023/05/14 05:25:53;;;;;;;9.93;8.85;;;;;;;;;;5075037;28;20056;-57
2023/05/14 05:28:20;;;;;;;10.32;9.32;;;;;;;;;;5073642;28;20564;-58
2023/05/14 05:30:47;;;;;;;12.57;10.25;;;;;;;;;;5054624;28;20072;-57
2023/05/14 05:33:14;;;;;;;15.23;10.88;;;;;;;;;;5055684;28;20057;-57
2023/05/14 05:35:42;;;;;;;11.63;10.43;;;;;;;;;;5055307;28;20057;-58
2023/05/14 05:38:11;;;;;;;11.55;10.45;;;;;;;;;;5055212;28;20123;-58
2023/05/14 05:40:38;;;;;;;;;;;;;;;;;;5057199;28;20056;-62
2023/05/14 05:43:06;;;;;;;13.13;10.30;;;;;;;;;;5055726;28;19925;-62
2023/05/14 05:45:33;;;;;;;10.85;9.85;;;;;;;;;;5075097;28;20052;-62
2023/05/14 05:48:00;;;;;;;11.82;9.90;;;;;;;;;;5074698;28;20056;-62
2023/05/14 05:50:30;;;;;;;13.02;10.05;;;;;;;;;;5075081;28;20052;-62
2023/05/14 05:52:59;;;;;;;10.93;9.55;;;;;;;;;;5075443;28;20063;-63
2023/05/14 05:55:26;;;;;;;10.77;9.68;;;;;;;;;;5075191;28;20493;-63
2023/05/14 05:57:53;;;;;;;11.27;9.98;;;;;;;;;;5071886;28;20049;-63
2023/05/14 06:00:24;;;;;;;10.98;9.93;;;;;;;;;;5074343;28;20053;-63
2023/05/14 06:02:51;;;;;;;11.55;10.35;;;;;;;;;;5074588;28;20055;-63
2023/05/14 06:05:20;;;;;;;11.60;10.60;;;;;;;;;;5074975;28;20052;-63
2023/05/14 06:07:47;;;;;;;12.45;10.38;;;;;;;;;;5077411;28;20044;-61
2023/05/14 06:10:17;;;;;;;12.43;11.15;;;;;;;;;;5077271;28;20056;-63
2023/05/14 06:12:44;;;;;;;10.35;9.30;;;;;;;;;;5073072;28;20055;-58
2023/05/14 06:15:12;;;;;;;10.43;9.32;;;;;;;;;;5072603;28;20063;-58
2023/05/14 06:17:40;;;;;;;11.35;10.15;;;;;;;;;;5074822;28;20049;-58
2023/05/14 06:20:07;;;;;;;11.80;9.73;;;;;;;;;;5074621;28;20052;-58
2023/05/14 06:22:34;;;;;;;12.77;10.48;;;;;;;;;;5074579;28;20116;-58
2023/05/14 06:25:01;;;;;;;10.23;8.80;;;;;;;;;;5070442;28;20077;-58
2023/05/14 06:27:28;;;;;;;9.60;8.60;;;;;;;;;;5065262;28;20056;-58
2023/05/14 06:29:55;;;;;;;10.40;9.40;;;;;;;;;;5069700;28;20052;-58
2023/05/14 06:32:21;;;;;;;10.10;9.20;;;;;;;;;;5073737;28;20406;-58
2023/05/14 06:34:50;;;;;;;11.45;10.25;;;;;;;;;;5074470;28;20120;-58
2023/05/14 06:37:16;;;;;;;11.45;10.30;;;;;;;;;;5074311;28;20056;-58
2023/05/14 06:39:48;;;;;;;10.45;9.43;;;;;;;;;;5074448;28;20059;-58
2023/05/14 06:42:15;;;;;;;12.25;9.15;;;;;;;;;;5074294;28;20053;-58
2023/05/14 06:44:42;;;;;;;11.60;10.40;;;;;;;;;;5068862;28;20055;-58
2023/05/14 06:47:09;;;;;;;11.23;10.13;;;;;;;;;;5074106;28;20063;-59
2023/05/14 06:49:36;;;;;;;10.48;9.45;;;;;;;;;;5073953;28;20056;-63
2023/05/14 06:52:05;;;;;;;9.50;8.60;;;;;;;;;;5074213;28;20052;-61
2023/05/14 06:54:32;;;;;;;10.90;9.85;;;;;;;;;;5073890;28;20056;-61
2023/05/14 06:56:58;;;;;;;9.95;9.05;;;;;;;;;;5073764;28;20053;-61
2023/05/14 06:59:25;;;;;;;10.15;9.10;;;;;;;;;;5070941;28;20056;-61
2023/05/14 07:01:52;;;;;;;10.30;8.90;;;;;;;;;;5064101;28;20048;-58
2023/05/14 07:04:19;;;;;;;11.55;9.55;;;;;;;;;;5057908;28;20057;-58
2023/05/14 07:06:46;;;;;;;9.68;8.07;;;;;;;;;;5053915;28;20060;-58
2023/05/14 07:09:14;;;;;;;10.18;9.07;;;;;;;;;;5053353;28;20053;-58
2023/05/14 07:11:41;;;;;;;11.00;9.85;;;;;;;;;;5053303;28;20053;-58
2023/05/14 07:14:07;;;;;;;9.88;8.98;;;;;;;;;;5055936;28;20048;-58
2023/05/14 07:16:34;;;;;;;9.90;9.00;;;;;;;;;;5053867;28;20469;-56
2023/05/14 07:19:01;;;;;;;10.05;9.15;;;;;;;;;;5053664;28;20064;-57
2023/05/14 07:21:28;;;;;;;9.93;9.02;;;;;;;;;;5053454;28;20049;-56
2023/05/14 07:23:55;;;;;;;10.20;9.07;;;;;;;;;;5053381;28;20064;-61
2023/05/14 07:26:23;;;;;;;9.82;8.68;;;;;;;;;;5053526;28;20060;-57
2023/05/14 07:28:50;;;;;;;9.35;8.55;;;;;;;;;;5053823;28;20275;-58
2023/05/14 07:31:17;;;;;;;8.77;7.82;;;;;;;;;;5070993;28;20048;-57
2023/05/14 07:33:44;;;;;;;8.50;7.63;;;;;;;;;;5072815;28;20053;-58
2023/05/14 07:36:11;;;;;;;15.15;7.10;;;;;;;;;;5072983;28;20060;-57
2023/05/14 07:38:37;;;;;;;7.25;6.53;;;;;;;;;;5061558;28;20057;-58
2023/05/14 07:41:04;;;;;;;6.38;5.78;;;;;;;;;;5053165;28;20076;-57
2023/05/14 07:43:33;;;;;;;7.78;6.05;;;;;;;;;;5053406;28;20490;-57
2023/05/14 07:45:59;;;;;;;6.47;5.72;;;;;;;;;;5067126;28;20409;-57
2023/05/14 07:48:26;;;;;;;5.47;4.97;;;;;;;;;;5072856;28;20064;-57
2023/05/14 07:50:53;;;;;;;5.63;5.05;;;;;;;;;;5072786;28;20048;-57
2023/05/14 07:53:20;;;;;;;6.90;4.60;;;;;;;;;;5072785;28;20135;-58
2023/05/14 07:55:48;;;;;;;5.03;4.50;;;;;;;;;;5072884;28;20508;-58
2023/05/14 07:58:16;;;;;;;6.80;4.45;;;;;;;;;;5072667;28;20056;-57
2023/05/14 08:00:44;;;;;;;4.25;3.78;;;;;;;;;;5068084;28;20052;-58
2023/05/14 08:03:11;;;;;;;4.13;3.72;;;;;;;;;;5072452;28;20057;-58
2023/05/14 08:05:37;;;;;;;3.75;3.28;;;;;;;;;;5072971;28;20053;-58
2023/05/14 08:08:04;;;;;;;3.47;3.00;;;;;;;;;;5072993;28;20056;-58
2023/05/14 08:10:31;;;;;;;4.22;3.53;;;;;;;;;;5072468;28;20076;-58
2023/05/14 08:12:58;;;;;;;3.65;2.85;;;;;;;;;;5072302;28;20049;-58
2023/05/14 08:15:25;;;;;;;3.70;3.30;;;;;;;;;;5068410;28;20119;-62
2023/05/14 08:17:53;;;;;;;3.13;2.83;;;;;;;;;;5072609;28;20059;-62
2023/05/14 08:20:20;;;;;;;3.45;2.60;;;;;;;;;;5071193;28;20062;-62
2023/05/14 08:22:47;;;;;;;2.83;1.90;;;;;;;;;;5072791;28;20048;-58
2023/05/14 08:25:13;;;;;;;2.30;2.05;;;;;;;;;;5072056;28;20064;-58
2023/05/14 08:27:40;;;;;;;3.05;2.00;;;;;;;;;;5072614;28;20056;-58
2023/05/14 08:30:07;;;;;;;3.50;2.17;;;;;;;;;;5068643;28;20508;-58
2023/05/14 08:32:34;;;;;;;4.85;2.45;;;;;;;;;;5071979;28;20052;-58
2023/05/14 08:35:03;;;;;;;2.72;2.17;;;;;;;;;;5072650;28;20048;-58
2023/05/14 08:37:29;;;;;;;;;;;;;;;;;;5073010;28;20063;-58
2023/05/14 08:39:56;;;;;;;2.60;2.08;;;;;;;;;;5072790;28;19927;-58
2023/05/14 08:42:24;;;;;;;3.35;1.88;;;;;;;;;;5072736;28;20056;-58
2023/05/14 08:44:53;;;;;;;3.85;1.98;;;;;;;;;;5063541;28;20402;-58
2023/05/14 08:47:21;;;;;;;2.28;1.92;;;;;;;;;;5053509;28;20056;-63
2023/05/14 08:49:51;;;;;;;2.33;1.70;;;;;;;;;;5052245;28;20049;-63
2023/05/14 08:52:20;;;;;;;2.70;1.88;;;;;;;;;;5052050;28;20056;-63
2023/05/14 08:54:48;;;;;;;2.63;1.45;;;;;;;;;;5052544;28;20056;-63
2023/05/14 08:57:15;;;;;;;1.85;1.75;;;;;;;;;;5052442;28;20387;-64
2023/05/14 08:59:41;;;;;;;1.75;1.50;;;;;;;;;;5050465;28;20057;-63
2023/05/14 09:02:09;;;;;;;2.25;1.48;;;;;;;;;;5055850;28;20411;-63
2023/05/14 09:04:36;;;;;;;1.90;1.30;;;;;;;;;;5072320;28;20049;-63
2023/05/14 09:07:03;;;;;;;2.33;1.77;;;;;;;;;;5072139;28;20056;-63
2023/05/14 09:09:32;;;;;;;2.17;1.40;;;;;;;;;;5072086;28;20052;-63
2023/05/14 09:11:59;;;;;;;3.42;1.55;;;;;;;;;;5063044;28;20045;-63
2023/05/14 09:14:26;;;;;;;2.45;1.50;;;;;;;;;;5052449;28;20398;-63
2023/05/14 09:16:53;;;;;;;1.50;1.20;;;;;;;;;;5052777;28;20060;-63
2023/05/14 09:19:20;;;;;;;1.63;1.38;;;;;;;;;;5059019;28;20939;-63
2023/05/14 09:21:48;;;;;;;1.65;1.40;;;;;;;;;;5063064;28;20063;-63
2023/05/14 09:24:19;;;;;;;2.42;1.33;;;;;;;;;;5072169;28;20052;-64
2023/05/14 09:26:49;;;;;;;1.40;1.00;;;;;;;;;;5072270;28;20378;-63
2023/05/14 09:29:16;;;;;;;2.63;1.40;;;;;;;;;;5072301;28;20064;-63
2023/05/14 09:31:43;;;;;;;2.20;1.30;;;;;;;;;;5068322;28;20059;-64
2023/05/14 09:34:10;;;;;;;1.40;1.20;;;;;;;;;;5075659;28;20052;-63
2023/05/14 09:36:37;;;;;;;1.67;1.30;;;;;;;;;;5075777;28;20048;-63
2023/05/14 09:39:04;;;;;;;1.77;1.40;;;;;;;;;;5075755;28;20489;-63
2023/05/14 09:41:31;;;;;;;2.28;1.20;;;;;;;;;;5075149;28;20052;-64
2023/05/14 09:44:00;;;;;;;2.13;1.20;;;;;;;;;;5073895;28;20064;-63
2023/05/14 09:46:30;;;;;;;1.50;1.30;;;;;;;;;;5071701;28;20049;-63
2023/05/14 09:48:57;;;;;;;3.25;1.33;;;;;;;;;;5075551;28;20053;-63
2023/05/14 09:51:24;;;;;;;2.05;1.30;;;;;;;;;;5075501;28;20044;-63
2023/05/14 09:53:52;;;;;;;3.25;1.50;;;;;;;;;;5074974;28;20055;-63
2023/05/14 09:56:20;;;;;;;1.98;1.30;;;;;;;;;;5075334;28;20079;-63
2023/05/14 09:58:48;;;;;;;3.25;1.70;;;;;;;;;;5075388;28;20048;-61
2023/05/14 10:01:18;;;;;;;2.72;1.50;;;;;;;;;;5072986;28;20052;-58
2023/05/14 10:03:45;;;;;;;4.03;1.77;;;;;;;;;;5074791;28;20060;-58
2023/05/14 10:06:13;;;;;;;2.03;1.60;;;;;;;;;;5075204;28;20063;-58
2023/05/14 10:08:40;;;;;;;;;;;;;;;;;;5075224;28;20485;-58
2023/05/14 10:11:08;;;;;;;1.88;1.40;;;;;;;;;;5074455;28;20378;-58
2023/05/14 10:13:37;;;;;;;3.63;1.50;;;;;;;;;;5074987;28;20049;-58
2023/05/14 10:16:08;;;;;;;2.20;1.48;;;;;;;;;;5063065;28;20063;-58
2023/05/14 10:18:47;;;;;;;4.15;1.40;;;;;;;;;;5074332;28;20049;-58
2023/05/14 10:21:15;;;;;;;1.65;1.20;;;;;;;;;;5074949;28;20052;-58
2023/05/14 10:23:42;;;;;;;1.42;1.30;;;;;;;;;;5074732;28;20055;-58
2023/05/14 10:26:10;;;;;;;2.25;1.48;;;;;;;;;;5073252;28;20055;-59
2023/05/14 10:28:37;;;;;;;2.53;1.40;;;;;;;;;;5074601;28;20060;-58
2023/05/14 10:31:04;;;;;;;1.70;1.50;;;;;;;;;;5070022;28;20052;-58
2023/05/14 10:33:31;;;;;;;1.80;1.43;;;;;;;;;;5074477;28;20048;-59
2023/05/14 10:36:01;;;;;;;3.70;1.65;;;;;;;;;;5074177;28;20058;-58
2023/05/14 10:38:29;;;;;;;1.83;1.50;;;;;;;;;;5074431;28;20060;-59
2023/05/14 10:40:57;;;;;;;1.50;1.40;;;;;;;;;;5074483;28;20064;-58
2023/05/14 10:43:26;;;;;;;1.80;1.40;;;;;;;;;;5073864;28;20135;-58
2023/05/14 10:45:53;;;;;;;3.45;1.70;;;;;;;;;;5068580;28;20524;-58
2023/05/14 10:48:20;;;;;;;1.80;1.55;;;;;;;;;;5072546;28;20426;-58
2023/05/14 10:50:47;;;;;;;2.78;1.67;;;;;;;;;;5074169;28;20082;-58
2023/05/14 10:53:16;;;;;;;2.00;1.60;;;;;;;;;;5073730;28;20096;-59
2023/05/14 10:55:42;;;;;;;1.60;1.50;;;;;;;;;;5074224;28;20056;-58
2023/05/14 10:58:10;;;;;;;1.67;1.58;;;;;;;;;;5073818;28;20048;-58
2023/05/14 11:00:37;;;;;;;2.03;1.45;;;;;;;;;;5072170;28;20052;-58
2023/05/14 11:03:04;;;;;;;2.88;1.58;;;;;;;;;;5069016;28;20382;-58
2023/05/14 11:05:31;;;;;;;2.88;1.70;;;;;;;;;;5073992;28;20045;-58
2023/05/14 11:07:58;;;;;;;2.80;1.50;;;;;;;;;;5073708;28;20059;-57
2023/05/14 11:10:28;;;;;;;3.75;1.60;;;;;;;;;;5073211;28;20044;-59
2023/05/14 11:12:56;;;;;;;2.20;1.63;;;;;;;;;;5073411;28;20044;-59
2023/05/14 11:15:23;;;;;;;1.93;1.53;;;;;;;;;;5073563;28;20049;-59
2023/05/14 11:17:51;;;;;;;2.72;1.83;;;;;;;;;;5069381;28;20487;-59
2023/05/14 11:20:18;;;;;;;2.10;1.90;;;;;;;;;;5073176;28;20075;-59
2023/05/14 11:22:45;;;;;;;2.20;2.00;;;;;;;;;;5073454;28;20044;-59
2023/05/14 11:25:13;;;;;;;1.85;1.73;;;;;;;;;;5073500;28;20481;-59
2023/05/14 11:27:43;;;;;;;2.70;1.77;;;;;;;;;;5073088;28;20079;-58
2023/05/14 11:30:14;;;;;;;2.70;1.52;;;;;;;;;;5073307;28;20055;-58
2023/05/14 11:32:41;;;;;;;2.00;1.50;;;;;;;;;;5067460;28;20045;-58
2023/05/14 11:35:08;;;;;;;2.33;1.70;;;;;;;;;;5072998;28;20056;-58
2023/05/14 11:37:35;;;;;;;2.15;1.95;;;;;;;;;;5073328;28;20057;-58
2023/05/14 11:40:03;;;;;;;2.37;1.60;;;;;;;;;;5073634;28;20059;-59
2023/05/14 11:42:30;;;;;;;2.58;1.52;;;;;;;;;;5073370;28;20053;-58
2023/05/14 11:44:58;;;;;;;2.28;1.60;;;;;;;;;;5073695;28;20052;-59
2023/05/14 11:47:25;;;;;;;2.10;1.75;;;;;;;;;;5069293;28;20056;-62
2023/05/14 11:49:52;;;;;;;1.95;1.50;;;;;;;;;;5073309;28;20397;-62
2023/05/14 11:52:20;;;;;;;1.77;1.60;;;;;;;;;;5073165;28;20048;-62
2023/05/14 11:54:48;;;;;;;;;;;;;;;;;;5073176;28;20049;-62
2023/05/14 11:57:16;;;;;;;1.77;1.40;;;;;;;;;;5072816;28;19920;-62
2023/05/14 11:59:43;;;;;;;1.77;1.48;;;;;;;;;;5073098;28;20052;-62
2023/05/14 12:02:11;;;;;;;1.88;1.40;;;;;;;;;;5066780;28;20064;-62
2023/05/14 12:04:38;;;;;;;1.90;1.40;;;;;;;;;;5068640;28;20056;-58
2023/05/14 12:07:08;;;;;;;2.65;1.40;;;;;;;;;;5054282;28;20061;-58
2023/05/14 12:09:36;;;;;;;1.98;1.52;;;;;;;;;;5053269;28;20056;-58
2023/05/14 12:12:08;;;;;;;2.63;1.63;;;;;;;;;;5052490;28;20057;-58
2023/05/14 12:14:37;;;;;;;1.58;1.20;;;;;;;;;;5053274;28;20427;-58
2023/05/14 12:17:11;;;;;;;2.35;1.52;;;;;;;;;;5065694;28;20052;-58
2023/05/14 12:19:39;;;;;;;1.95;1.20;;;;;;;;;;5073109;28;20056;-58
2023/05/14 12:22:06;;;;;;;;;;;;;;;;;;5073071;28;20064;-58
2023/05/14 12:24:33;;;;;;;1.88;1.10;;;;;;;;;;5072985;28;20380;-58
2023/05/14 12:27:00;;;;;;;2.13;1.50;;;;;;;;;;5072551;28;20060;-58
2023/05/14 12:29:27;;;;;;;1.67;1.30;;;;;;;;;;5072670;28;20049;-58
2023/05/14 12:31:57;;;;;;;3.05;1.50;;;;;;;;;;5068560;28;20072;-58
2023/05/14 12:34:25;;;;;;;1.48;1.17;;;;;;;;;;5072572;28;20045;-58
2023/05/14 12:36:52;;;;;;;1.88;1.30;;;;;;;;;;5072636;28;20048;-58
2023/05/14 12:39:19;;;;;;;1.88;1.50;;;;;;;;;;5072622;28;20056;-59
2023/05/14 12:41:45;;;;;;;2.20;1.45;;;;;;;;;;5072806;28;20049;-59
2023/05/14 12:44:12;;;;;;;1.83;1.10;;;;;;;;;;5072367;28;20052;-58
2023/05/14 12:46:39;;;;;;;2.88;1.00;;;;;;;;;;5066933;28;20052;-59
2023/05/14 12:49:06;;;;;;;2.15;1.08;;;;;;;;;;5065438;28;20059;-59
2023/05/14 12:51:35;;;;;;;1.23;1.05;;;;;;;;;;5052826;28;20052;-59
2023/05/14 12:54:01;;;;;;;2.15;1.30;;;;;;;;;;5063211;28;20047;-59
2023/05/14 12:56:30;;;;;;;1.40;1.23;;;;;;;;;;5072105;28;20053;-59
2023/05/14 12:58:57;;;;;;;1.50;1.10;;;;;;;;;;5072354;28;20075;-59
2023/05/14 13:01:24;;;;;;;1.50;1.08;;;;;;;;;;5068541;28;20060;-59
2023/05/14 13:03:51;;;;;;;2.78;1.00;;;;;;;;;;5072359;28;20060;-59
2023/05/14 13:06:18;;;;;;;2.42;1.33;;;;;;;;;;5073224;28;20053;-59
2023/05/14 13:08:46;;;;;;;2.03;1.10;;;;;;;;;;5076230;28;20052;-59
2023/05/14 13:11:13;;;;;;;;;;;;;;;;;;5076702;28;20053;-59
2023/05/14 13:13:39;;;;;;;1.80;1.02;;;;;;;;;;5076451;28;19927;-59
2023/05/14 13:16:07;;;;;;;1.60;1.10;;;;;;;;;;5071739;28;20501;-59
2023/05/14 13:18:33;;;;;;;1.85;1.58;;;;;;;;;;5076100;28;20390;-59
2023/05/14 13:21:03;;;;;;;2.95;1.20;;;;;;;;;;5075795;28;20048;-59
2023/05/14 13:23:29;;;;;;;2.70;1.63;;;;;;;;;;5075748;28;20398;-59
2023/05/14 13:25:57;;;;;;;1.30;1.00;;;;;;;;;;5075711;28;20053;-59
2023/05/14 13:28:24;;;;;;;2.50;0.80;;;;;;;;;;5075783;28;20052;-59
2023/05/14 13:31:04;;;;;;;1.30;0.90;;;;;;;;;;5071481;28;20045;-59
2023/05/14 13:33:31;;;;;;;1.85;1.00;;;;;;;;;;5075603;28;20159;-59
2023/05/14 13:35:58;;;;;;;1.67;0.90;;;;;;;;;;5075335;28;20060;-58
2023/05/14 13:38:25;;;;;;;1.33;0.80;;;;;;;;;;5075596;28;20056;-59
2023/05/14 13:40:53;;;;;;;1.50;1.25;;;;;;;;;;5075242;28;20059;-58
2023/05/14 13:43:21;;;;;;;1.20;0.80;;;;;;;;;;5075201;28;20398;-59
2023/05/14 13:45:48;;;;;;;1.88;0.90;;;;;;;;;;5071327;28;20053;-58
2023/05/14 13:48:14;;;;;;;1.45;0.85;;;;;;;;;;5075002;28;20056;-59
2023/05/14 13:50:41;;;;;;;2.15;1.10;;;;;;;;;;5075219;28;20478;-58
2023/05/14 13:53:08;;;;;;;2.20;0.90;;;;;;;;;;5075098;28;20056;-59
2023/05/14 13:55:35;;;;;;;1.17;0.90;;;;;;;;;;5075361;28;20513;-59
2023/05/14 13:58:02;;;;;;;1.95;1.00;;;;;;;;;;5075003;28;20060;-58
2023/05/14 14:00:30;;;;;;;1.60;1.20;;;;;;;;;;5064952;28;20494;-59
2023/05/14 14:02:57;;;;;;;;;;;;;;;;;;5066273;28;20059;-58
2023/05/14 14:05:27;;;;;;;1.63;1.10;;;;;;;;;;5074835;28;19920;-58
2023/05/14 14:07:54;;;;;;;2.17;1.23;;;;;;;;;;5073729;28;20056;-59
2023/05/14 14:10:21;;;;;;;2.78;1.30;;;;;;;;;;5074794;28;20079;-59
2023/05/14 14:12:47;;;;;;;1.58;1.00;;;;;;;;;;5072845;28;20060;-59
2023/05/14 14:15:14;;;;;;;1.55;1.00;;;;;;;;;;5070870;28;20060;-58
2023/05/14 14:17:42;;;;;;;1.85;1.10;;;;;;;;;;5074289;28;20060;-59
2023/05/14 14:20:10;;;;;;;2.80;1.20;;;;;;;;;;5074675;28;20527;-59
2023/05/14 14:22:37;;;;;;;1.48;1.00;;;;;;;;;;5074845;28;20059;-60
2023/05/14 14:25:04;;;;;;;1.73;1.10;;;;;;;;;;5074815;28;20070;-58
2023/05/14 14:27:32;;;;;;;1.60;1.08;;;;;;;;;;5074213;28;20057;-58
2023/05/14 14:29:59;;;;;;;;;;;;;;;;;;5073078;28;20052;-58
2023/05/14 14:32:26;;;;;;;1.50;0.90;;;;;;;;;;5072706;28;19924;-58
2023/05/14 14:34:54;;;;;;;1.33;1.00;;;;;;;;;;5074557;28;20051;-58
2023/05/14 14:37:21;;;;;;;1.23;0.82;;;;;;;;;;5069705;28;20059;-58
2023/05/14 14:39:47;;;;;;;1.73;1.10;;;;;;;;;;5074579;28;20058;-58
2023/05/14 14:42:14;;;;;;;1.48;1.13;;;;;;;;;;5068188;28;20060;-58